sensor_id;sensor_type;location;lat;lon;timestamp;P1;durP1;ratioP1;P2;durP2;ratioP2
12631;SDS011;6381;45.748;12.106;2022-12-24T00:00:06;62.23;;;51.43;;
12631;SDS011;6381;45.748;12.106;2022-12-24T00:02:37;58.87;;;51.67;;
12631;SDS011;6381;45.748;12.106;2022-12-24T00:05:08;60.50;;;52.07;;
12631;SDS011;6381;45.748;12.106;2022-12-24T00:07:38;67.73;;;54.20;;
12631;SDS011;6381;45.748;12.106;2022-12-24T00:10:08;66.07;;;54.50;;
12631;SDS011;6381;45.748;12.106;2022-12-24T00:12:37;65.17;;;52.07;;
12631;SDS011;6381;45.748;12.106;2022-12-24T00:15:07;62.40;;;52.97;;
12631;SDS011;6381;45.748;12.106;2022-12-24T00:17:37;64.10;;;52.50;;
12631;SDS011;6381;45.748;12.106;2022-12-24T00:20:08;63.10;;;51.23;;
12631;SDS011;6381;45.748;12.106;2022-12-24T00:22:38;57.13;;;50.07;;
12631;SDS011;6381;45.748;12.106;2022-12-24T00:25:08;61.93;;;51.60;;
12631;SDS011;6381;45.748;12.106;2022-12-24T00:27:37;64.63;;;51.07;;
12631;SDS011;6381;45.748;12.106;2022-12-24T00:30:07;61.07;;;50.87;;
12631;SDS011;6381;45.748;12.106;2022-12-24T00:32:37;59.63;;;49.50;;
12631;SDS011;6381;45.748;12.106;2022-12-24T00:35:08;61.77;;;51.73;;
12631;SDS011;6381;45.748;12.106;2022-12-24T00:37:38;90.43;;;66.70;;
12631;SDS011;6381;45.748;12.106;2022-12-24T00:40:07;72.73;;;60.83;;
12631;SDS011;6381;45.748;12.106;2022-12-24T00:42:37;72.83;;;57.10;;
12631;SDS011;6381;45.748;12.106;2022-12-24T00:45:07;71.53;;;56.83;;
12631;SDS011;6381;45.748;12.106;2022-12-24T00:47:37;68.80;;;56.87;;
12631;SDS011;6381;45.748;12.106;2022-12-24T00:50:08;77.73;;;59.47;;
12631;SDS011;6381;45.748;12.106;2022-12-24T00:52:38;68.07;;;56.57;;
12631;SDS011;6381;45.748;12.106;2022-12-24T00:55:07;68.23;;;55.40;;
12631;SDS011;6381;45.748;12.106;2022-12-24T00:57:37;74.50;;;58.03;;
12631;SDS011;6381;45.748;12.106;2022-12-24T01:00:07;74.50;;;57.50;;
12631;SDS011;6381;45.748;12.106;2022-12-24T01:02:37;68.63;;;55.83;;
12631;SDS011;6381;45.748;12.106;2022-12-24T01:05:08;66.47;;;53.97;;
12631;SDS011;6381;45.748;12.106;2022-12-24T01:07:38;77.10;;;59.20;;
12631;SDS011;6381;45.748;12.106;2022-12-24T01:10:08;69.20;;;57.10;;
12631;SDS011;6381;45.748;12.106;2022-12-24T01:12:38;79.67;;;63.33;;
12631;SDS011;6381;45.748;12.106;2022-12-24T01:15:08;71.13;;;58.23;;
12631;SDS011;6381;45.748;12.106;2022-12-24T01:17:38;67.97;;;55.27;;
12631;SDS011;6381;45.748;12.106;2022-12-24T01:20:10;69.97;;;55.30;;
12631;SDS011;6381;45.748;12.106;2022-12-24T01:22:41;69.90;;;57.07;;
12631;SDS011;6381;45.748;12.106;2022-12-24T01:25:10;67.63;;;56.53;;
12631;SDS011;6381;45.748;12.106;2022-12-24T01:27:42;66.23;;;55.27;;
12631;SDS011;6381;45.748;12.106;2022-12-24T01:30:12;69.70;;;54.90;;
12631;SDS011;6381;45.748;12.106;2022-12-24T01:32:42;66.50;;;55.27;;
12631;SDS011;6381;45.748;12.106;2022-12-24T01:35:13;61.97;;;53.37;;
12631;SDS011;6381;45.748;12.106;2022-12-24T01:37:42;71.33;;;56.57;;
12631;SDS011;6381;45.748;12.106;2022-12-24T01:40:14;64.77;;;53.83;;
12631;SDS011;6381;45.748;12.106;2022-12-24T01:43:01;64.17;;;53.87;;
12631;SDS011;6381;45.748;12.106;2022-12-24T01:45:48;60.63;;;50.57;;
12631;SDS011;6381;45.748;12.106;2022-12-24T01:48:20;56.77;;;48.23;;
12631;SDS011;6381;45.748;12.106;2022-12-24T01:50:53;55.63;;;46.90;;
12631;SDS011;6381;45.748;12.106;2022-12-24T01:53:24;56.87;;;45.57;;
12631;SDS011;6381;45.748;12.106;2022-12-24T01:55:54;50.27;;;42.67;;
12631;SDS011;6381;45.748;12.106;2022-12-24T01:58:23;45.73;;;40.67;;
12631;SDS011;6381;45.748;12.106;2022-12-24T02:00:54;50.43;;;43.50;;
12631;SDS011;6381;45.748;12.106;2022-12-24T02:03:24;52.83;;;42.00;;
12631;SDS011;6381;45.748;12.106;2022-12-24T02:05:55;48.57;;;39.97;;
12631;SDS011;6381;45.748;12.106;2022-12-24T02:08:26;47.23;;;40.03;;
12631;SDS011;6381;45.748;12.106;2022-12-24T02:11:09;50.47;;;42.80;;
12631;SDS011;6381;45.748;12.106;2022-12-24T02:13:38;49.10;;;42.00;;
12631;SDS011;6381;45.748;12.106;2022-12-24T02:16:11;50.07;;;41.97;;
12631;SDS011;6381;45.748;12.106;2022-12-24T02:18:45;46.33;;;38.97;;
12631;SDS011;6381;45.748;12.106;2022-12-24T02:30:06;43.23;;;38.50;;
12631;SDS011;6381;45.748;12.106;2022-12-24T02:32:40;45.90;;;39.53;;
12631;SDS011;6381;45.748;12.106;2022-12-24T02:35:13;44.83;;;39.07;;
12631;SDS011;6381;45.748;12.106;2022-12-24T02:37:45;45.27;;;38.57;;
12631;SDS011;6381;45.748;12.106;2022-12-24T02:40:17;42.27;;;36.60;;
12631;SDS011;6381;45.748;12.106;2022-12-24T02:42:49;43.20;;;36.37;;
12631;SDS011;6381;45.748;12.106;2022-12-24T02:45:21;42.23;;;37.43;;
12631;SDS011;6381;45.748;12.106;2022-12-24T02:47:51;42.27;;;35.97;;
12631;SDS011;6381;45.748;12.106;2022-12-24T02:50:23;43.00;;;36.93;;
12631;SDS011;6381;45.748;12.106;2022-12-24T02:52:52;48.90;;;37.47;;
12631;SDS011;6381;45.748;12.106;2022-12-24T02:55:22;43.00;;;36.83;;
12631;SDS011;6381;45.748;12.106;2022-12-24T02:57:55;42.60;;;36.00;;
12631;SDS011;6381;45.748;12.106;2022-12-24T03:00:31;43.20;;;36.97;;
12631;SDS011;6381;45.748;12.106;2022-12-24T03:03:07;43.00;;;36.97;;
12631;SDS011;6381;45.748;12.106;2022-12-24T03:05:42;42.00;;;37.47;;
12631;SDS011;6381;45.748;12.106;2022-12-24T03:08:14;47.73;;;40.07;;
12631;SDS011;6381;45.748;12.106;2022-12-24T03:10:46;44.30;;;39.27;;
12631;SDS011;6381;45.748;12.106;2022-12-24T03:13:20;44.50;;;39.57;;
12631;SDS011;6381;45.748;12.106;2022-12-24T03:15:51;46.70;;;40.67;;
12631;SDS011;6381;45.748;12.106;2022-12-24T03:18:21;46.87;;;40.53;;
12631;SDS011;6381;45.748;12.106;2022-12-24T03:20:53;48.73;;;39.83;;
12631;SDS011;6381;45.748;12.106;2022-12-24T03:23:26;44.73;;;39.70;;
12631;SDS011;6381;45.748;12.106;2022-12-24T03:25:55;42.47;;;37.77;;
12631;SDS011;6381;45.748;12.106;2022-12-24T03:28:25;50.70;;;39.23;;
12631;SDS011;6381;45.748;12.106;2022-12-24T03:30:59;46.00;;;38.50;;
12631;SDS011;6381;45.748;12.106;2022-12-24T03:33:29;47.73;;;39.33;;
12631;SDS011;6381;45.748;12.106;2022-12-24T03:35:59;43.80;;;37.97;;
12631;SDS011;6381;45.748;12.106;2022-12-24T03:38:28;43.27;;;37.07;;
12631;SDS011;6381;45.748;12.106;2022-12-24T03:40:57;44.33;;;37.20;;
12631;SDS011;6381;45.748;12.106;2022-12-24T03:43:27;42.67;;;37.83;;
12631;SDS011;6381;45.748;12.106;2022-12-24T03:46:01;45.63;;;37.07;;
12631;SDS011;6381;45.748;12.106;2022-12-24T03:48:32;42.37;;;36.67;;
12631;SDS011;6381;45.748;12.106;2022-12-24T03:51:02;44.53;;;37.77;;
12631;SDS011;6381;45.748;12.106;2022-12-24T03:53:31;41.93;;;37.40;;
12631;SDS011;6381;45.748;12.106;2022-12-24T03:56:01;41.10;;;36.73;;
12631;SDS011;6381;45.748;12.106;2022-12-24T03:58:30;42.07;;;37.50;;
12631;SDS011;6381;45.748;12.106;2022-12-24T04:01:01;41.40;;;34.40;;
12631;SDS011;6381;45.748;12.106;2022-12-24T04:03:31;44.07;;;36.43;;
12631;SDS011;6381;45.748;12.106;2022-12-24T04:06:01;41.77;;;36.80;;
12631;SDS011;6381;45.748;12.106;2022-12-24T04:08:31;43.17;;;35.97;;
12631;SDS011;6381;45.748;12.106;2022-12-24T04:11:05;44.43;;;35.33;;
12631;SDS011;6381;45.748;12.106;2022-12-24T04:13:36;41.63;;;36.20;;
12631;SDS011;6381;45.748;12.106;2022-12-24T04:16:08;43.67;;;35.63;;
12631;SDS011;6381;45.748;12.106;2022-12-24T04:18:38;42.23;;;37.07;;
12631;SDS011;6381;45.748;12.106;2022-12-24T04:21:08;42.97;;;36.13;;
12631;SDS011;6381;45.748;12.106;2022-12-24T04:23:38;40.13;;;35.70;;
12631;SDS011;6381;45.748;12.106;2022-12-24T04:26:09;42.33;;;35.03;;
12631;SDS011;6381;45.748;12.106;2022-12-24T04:28:40;41.67;;;36.77;;
12631;SDS011;6381;45.748;12.106;2022-12-24T04:31:12;44.13;;;36.40;;
12631;SDS011;6381;45.748;12.106;2022-12-24T04:33:42;39.83;;;35.43;;
12631;SDS011;6381;45.748;12.106;2022-12-24T04:36:12;40.90;;;36.43;;
12631;SDS011;6381;45.748;12.106;2022-12-24T04:38:43;44.90;;;39.47;;
12631;SDS011;6381;45.748;12.106;2022-12-24T04:41:13;47.00;;;40.10;;
12631;SDS011;6381;45.748;12.106;2022-12-24T04:43:50;47.70;;;38.70;;
12631;SDS011;6381;45.748;12.106;2022-12-24T04:46:22;42.17;;;36.57;;
12631;SDS011;6381;45.748;12.106;2022-12-24T04:48:52;43.13;;;37.40;;
12631;SDS011;6381;45.748;12.106;2022-12-24T04:51:22;44.23;;;38.10;;
12631;SDS011;6381;45.748;12.106;2022-12-24T04:53:52;42.00;;;37.50;;
12631;SDS011;6381;45.748;12.106;2022-12-24T04:56:22;39.80;;;35.50;;
12631;SDS011;6381;45.748;12.106;2022-12-24T04:58:52;43.17;;;36.57;;
12631;SDS011;6381;45.748;12.106;2022-12-24T05:01:23;40.10;;;35.70;;
12631;SDS011;6381;45.748;12.106;2022-12-24T05:03:54;42.47;;;36.13;;
12631;SDS011;6381;45.748;12.106;2022-12-24T05:06:24;39.77;;;35.07;;
12631;SDS011;6381;45.748;12.106;2022-12-24T05:08:54;38.93;;;34.80;;
12631;SDS011;6381;45.748;12.106;2022-12-24T05:11:25;41.47;;;35.27;;
12631;SDS011;6381;45.748;12.106;2022-12-24T05:13:54;39.13;;;34.80;;
12631;SDS011;6381;45.748;12.106;2022-12-24T05:16:25;43.27;;;36.87;;
12631;SDS011;6381;45.748;12.106;2022-12-24T05:18:55;46.17;;;37.67;;
12631;SDS011;6381;45.748;12.106;2022-12-24T05:21:24;45.83;;;38.73;;
12631;SDS011;6381;45.748;12.106;2022-12-24T05:23:54;45.17;;;37.30;;
12631;SDS011;6381;45.748;12.106;2022-12-24T05:26:41;45.77;;;38.30;;
12631;SDS011;6381;45.748;12.106;2022-12-24T05:29:12;42.80;;;37.00;;
12631;SDS011;6381;45.748;12.106;2022-12-24T05:31:43;41.97;;;37.40;;
12631;SDS011;6381;45.748;12.106;2022-12-24T05:34:13;42.97;;;36.60;;
12631;SDS011;6381;45.748;12.106;2022-12-24T05:36:43;42.40;;;36.90;;
12631;SDS011;6381;45.748;12.106;2022-12-24T05:39:13;40.00;;;34.57;;
12631;SDS011;6381;45.748;12.106;2022-12-24T05:41:43;39.00;;;34.83;;
12631;SDS011;6381;45.748;12.106;2022-12-24T05:44:13;42.10;;;35.60;;
12631;SDS011;6381;45.748;12.106;2022-12-24T05:46:44;39.87;;;34.37;;
12631;SDS011;6381;45.748;12.106;2022-12-24T05:49:14;41.50;;;34.90;;
12631;SDS011;6381;45.748;12.106;2022-12-24T05:51:43;40.13;;;32.83;;
12631;SDS011;6381;45.748;12.106;2022-12-24T05:54:13;34.53;;;30.77;;
12631;SDS011;6381;45.748;12.106;2022-12-24T05:56:42;34.63;;;30.90;;
12631;SDS011;6381;45.748;12.106;2022-12-24T05:59:12;36.90;;;32.33;;
12631;SDS011;6381;45.748;12.106;2022-12-24T06:01:41;34.83;;;30.47;;
12631;SDS011;6381;45.748;12.106;2022-12-24T06:04:14;36.20;;;30.43;;
12631;SDS011;6381;45.748;12.106;2022-12-24T06:06:52;35.40;;;30.80;;
12631;SDS011;6381;45.748;12.106;2022-12-24T06:09:21;35.27;;;29.17;;
12631;SDS011;6381;45.748;12.106;2022-12-24T06:11:51;31.93;;;28.13;;
12631;SDS011;6381;45.748;12.106;2022-12-24T06:14:20;31.30;;;27.80;;
12631;SDS011;6381;45.748;12.106;2022-12-24T06:16:50;31.17;;;27.87;;
12631;SDS011;6381;45.748;12.106;2022-12-24T06:19:22;29.23;;;26.13;;
12631;SDS011;6381;45.748;12.106;2022-12-24T06:21:51;31.67;;;28.20;;
12631;SDS011;6381;45.748;12.106;2022-12-24T06:24:21;30.93;;;27.73;;
12631;SDS011;6381;45.748;12.106;2022-12-24T06:26:50;30.50;;;27.30;;
12631;SDS011;6381;45.748;12.106;2022-12-24T06:29:19;28.90;;;25.73;;
12631;SDS011;6381;45.748;12.106;2022-12-24T06:31:49;28.27;;;25.40;;
12631;SDS011;6381;45.748;12.106;2022-12-24T06:34:18;29.00;;;26.00;;
12631;SDS011;6381;45.748;12.106;2022-12-24T06:36:49;28.87;;;25.73;;
12631;SDS011;6381;45.748;12.106;2022-12-24T06:39:19;31.30;;;27.60;;
12631;SDS011;6381;45.748;12.106;2022-12-24T06:41:48;30.13;;;26.30;;
12631;SDS011;6381;45.748;12.106;2022-12-24T06:44:18;29.10;;;26.00;;
12631;SDS011;6381;45.748;12.106;2022-12-24T06:46:47;30.17;;;26.97;;
12631;SDS011;6381;45.748;12.106;2022-12-24T06:49:17;30.50;;;27.20;;
12631;SDS011;6381;45.748;12.106;2022-12-24T06:51:46;30.70;;;27.37;;
12631;SDS011;6381;45.748;12.106;2022-12-24T06:54:17;39.30;;;33.80;;
12631;SDS011;6381;45.748;12.106;2022-12-24T06:56:47;37.47;;;32.33;;
12631;SDS011;6381;45.748;12.106;2022-12-24T06:59:16;36.10;;;32.20;;
12631;SDS011;6381;45.748;12.106;2022-12-24T07:01:45;37.53;;;32.67;;
12631;SDS011;6381;45.748;12.106;2022-12-24T07:04:15;33.73;;;30.17;;
12631;SDS011;6381;45.748;12.106;2022-12-24T07:06:46;34.37;;;30.53;;
12631;SDS011;6381;45.748;12.106;2022-12-24T07:09:17;30.73;;;27.53;;
12631;SDS011;6381;45.748;12.106;2022-12-24T07:11:47;30.70;;;27.40;;
12631;SDS011;6381;45.748;12.106;2022-12-24T07:14:17;29.60;;;26.30;;
12631;SDS011;6381;45.748;12.106;2022-12-24T07:16:46;29.83;;;26.70;;
12631;SDS011;6381;45.748;12.106;2022-12-24T07:19:24;31.43;;;28.23;;
12631;SDS011;6381;45.748;12.106;2022-12-24T07:21:53;32.37;;;28.60;;
12631;SDS011;6381;45.748;12.106;2022-12-24T07:24:24;33.40;;;29.03;;
12631;SDS011;6381;45.748;12.106;2022-12-24T07:26:54;32.67;;;29.17;;
12631;SDS011;6381;45.748;12.106;2022-12-24T07:29:23;32.30;;;28.37;;
12631;SDS011;6381;45.748;12.106;2022-12-24T07:31:53;33.57;;;29.90;;
12631;SDS011;6381;45.748;12.106;2022-12-24T07:34:22;33.53;;;29.93;;
12631;SDS011;6381;45.748;12.106;2022-12-24T07:36:52;37.57;;;31.77;;
12631;SDS011;6381;45.748;12.106;2022-12-24T07:39:21;35.97;;;31.60;;
12631;SDS011;6381;45.748;12.106;2022-12-24T07:41:52;36.40;;;32.37;;
12631;SDS011;6381;45.748;12.106;2022-12-24T07:44:23;34.70;;;30.93;;
12631;SDS011;6381;45.748;12.106;2022-12-24T07:46:52;37.73;;;32.60;;
12631;SDS011;6381;45.748;12.106;2022-12-24T07:49:22;36.10;;;32.00;;
12631;SDS011;6381;45.748;12.106;2022-12-24T07:51:52;39.40;;;33.77;;
12631;SDS011;6381;45.748;12.106;2022-12-24T07:54:22;40.57;;;33.43;;
12631;SDS011;6381;45.748;12.106;2022-12-24T07:56:53;39.83;;;34.03;;
12631;SDS011;6381;45.748;12.106;2022-12-24T07:59:22;39.23;;;32.47;;
12631;SDS011;6381;45.748;12.106;2022-12-24T08:01:52;36.73;;;32.73;;
12631;SDS011;6381;45.748;12.106;2022-12-24T08:04:21;42.03;;;35.30;;
12631;SDS011;6381;45.748;12.106;2022-12-24T08:06:51;45.17;;;39.33;;
12631;SDS011;6381;45.748;12.106;2022-12-24T08:09:20;50.30;;;39.67;;
12631;SDS011;6381;45.748;12.106;2022-12-24T08:11:50;39.00;;;33.50;;
12631;SDS011;6381;45.748;12.106;2022-12-24T08:14:21;41.77;;;33.43;;
12631;SDS011;6381;45.748;12.106;2022-12-24T08:16:51;44.47;;;36.40;;
12631;SDS011;6381;45.748;12.106;2022-12-24T08:19:20;42.00;;;35.80;;
12631;SDS011;6381;45.748;12.106;2022-12-24T08:21:50;43.77;;;37.33;;
12631;SDS011;6381;45.748;12.106;2022-12-24T08:24:19;38.87;;;34.63;;
12631;SDS011;6381;45.748;12.106;2022-12-24T08:26:49;38.60;;;34.40;;
12631;SDS011;6381;45.748;12.106;2022-12-24T08:29:18;39.43;;;34.37;;
12631;SDS011;6381;45.748;12.106;2022-12-24T08:31:49;40.23;;;33.67;;
12631;SDS011;6381;45.748;12.106;2022-12-24T08:34:19;36.87;;;32.83;;
12631;SDS011;6381;45.748;12.106;2022-12-24T08:36:48;38.27;;;34.20;;
12631;SDS011;6381;45.748;12.106;2022-12-24T08:39:18;39.70;;;35.50;;
12631;SDS011;6381;45.748;12.106;2022-12-24T08:41:47;40.03;;;35.83;;
12631;SDS011;6381;45.748;12.106;2022-12-24T08:44:17;41.27;;;35.40;;
12631;SDS011;6381;45.748;12.106;2022-12-24T08:46:46;41.27;;;35.97;;
12631;SDS011;6381;45.748;12.106;2022-12-24T08:49:17;42.23;;;37.00;;
12631;SDS011;6381;45.748;12.106;2022-12-24T08:51:46;46.10;;;39.07;;
12631;SDS011;6381;45.748;12.106;2022-12-24T08:54:17;41.90;;;37.10;;
12631;SDS011;6381;45.748;12.106;2022-12-24T08:56:48;43.53;;;38.57;;
12631;SDS011;6381;45.748;12.106;2022-12-24T08:59:17;45.37;;;40.40;;
12631;SDS011;6381;45.748;12.106;2022-12-24T09:01:47;45.00;;;39.17;;
12631;SDS011;6381;45.748;12.106;2022-12-24T09:04:18;46.67;;;41.57;;
12631;SDS011;6381;45.748;12.106;2022-12-24T09:06:48;43.10;;;38.40;;
12631;SDS011;6381;45.748;12.106;2022-12-24T09:09:17;37.33;;;33.33;;
12631;SDS011;6381;45.748;12.106;2022-12-24T09:11:46;39.27;;;32.50;;
12631;SDS011;6381;45.748;12.106;2022-12-24T09:14:16;36.13;;;31.67;;
12631;SDS011;6381;45.748;12.106;2022-12-24T09:16:45;35.90;;;32.10;;
12631;SDS011;6381;45.748;12.106;2022-12-24T09:19:15;31.07;;;26.10;;
12631;SDS011;6381;45.748;12.106;2022-12-24T09:21:46;35.70;;;30.17;;
12631;SDS011;6381;45.748;12.106;2022-12-24T09:24:16;37.40;;;33.03;;
12631;SDS011;6381;45.748;12.106;2022-12-24T09:26:45;35.10;;;29.17;;
12631;SDS011;6381;45.748;12.106;2022-12-24T09:29:23;31.43;;;28.07;;
12631;SDS011;6381;45.748;12.106;2022-12-24T09:31:52;33.80;;;29.83;;
12631;SDS011;6381;45.748;12.106;2022-12-24T09:34:23;32.87;;;28.90;;
12631;SDS011;6381;45.748;12.106;2022-12-24T09:36:58;34.70;;;28.63;;
12631;SDS011;6381;45.748;12.106;2022-12-24T09:39:31;32.03;;;28.47;;
12631;SDS011;6381;45.748;12.106;2022-12-24T09:42:02;31.83;;;27.97;;
12631;SDS011;6381;45.748;12.106;2022-12-24T09:44:35;35.70;;;30.30;;
12631;SDS011;6381;45.748;12.106;2022-12-24T09:47:10;40.30;;;29.47;;
12631;SDS011;6381;45.748;12.106;2022-12-24T09:49:41;38.30;;;30.63;;
12631;SDS011;6381;45.748;12.106;2022-12-24T09:52:14;43.10;;;32.77;;
12631;SDS011;6381;45.748;12.106;2022-12-24T09:54:46;38.23;;;31.53;;
12631;SDS011;6381;45.748;12.106;2022-12-24T09:57:22;36.83;;;32.03;;
12631;SDS011;6381;45.748;12.106;2022-12-24T09:59:54;36.20;;;31.03;;
12631;SDS011;6381;45.748;12.106;2022-12-24T10:02:23;33.30;;;29.00;;
12631;SDS011;6381;45.748;12.106;2022-12-24T10:04:53;36.57;;;30.53;;
12631;SDS011;6381;45.748;12.106;2022-12-24T10:07:28;35.67;;;29.53;;
12631;SDS011;6381;45.748;12.106;2022-12-24T10:10:00;34.83;;;29.60;;
12631;SDS011;6381;45.748;12.106;2022-12-24T10:12:31;36.03;;;30.57;;
12631;SDS011;6381;45.748;12.106;2022-12-24T10:15:07;35.03;;;28.80;;
12631;SDS011;6381;45.748;12.106;2022-12-24T10:17:48;42.50;;;32.20;;
12631;SDS011;6381;45.748;12.106;2022-12-24T10:20:31;44.60;;;38.33;;
12631;SDS011;6381;45.748;12.106;2022-12-24T10:23:04;35.23;;;30.77;;
12631;SDS011;6381;45.748;12.106;2022-12-24T10:25:35;35.53;;;29.10;;
12631;SDS011;6381;45.748;12.106;2022-12-24T10:28:07;35.47;;;30.27;;
12631;SDS011;6381;45.748;12.106;2022-12-24T10:30:41;35.03;;;30.43;;
12631;SDS011;6381;45.748;12.106;2022-12-24T10:33:15;36.77;;;29.03;;
12631;SDS011;6381;45.748;12.106;2022-12-24T10:35:46;37.53;;;29.67;;
12631;SDS011;6381;45.748;12.106;2022-12-24T10:38:18;34.23;;;29.67;;
12631;SDS011;6381;45.748;12.106;2022-12-24T10:40:48;32.80;;;28.40;;
12631;SDS011;6381;45.748;12.106;2022-12-24T10:43:20;35.47;;;29.97;;
12631;SDS011;6381;45.748;12.106;2022-12-24T10:45:50;34.73;;;29.47;;
12631;SDS011;6381;45.748;12.106;2022-12-24T10:48:22;36.03;;;30.63;;
12631;SDS011;6381;45.748;12.106;2022-12-24T10:50:55;36.27;;;30.87;;
12631;SDS011;6381;45.748;12.106;2022-12-24T10:53:30;34.50;;;30.67;;
12631;SDS011;6381;45.748;12.106;2022-12-24T10:56:01;39.23;;;33.13;;
12631;SDS011;6381;45.748;12.106;2022-12-24T10:58:32;34.93;;;30.43;;
12631;SDS011;6381;45.748;12.106;2022-12-24T11:01:02;36.53;;;31.43;;
12631;SDS011;6381;45.748;12.106;2022-12-24T11:03:32;34.50;;;30.53;;
12631;SDS011;6381;45.748;12.106;2022-12-24T11:06:09;37.20;;;32.73;;
12631;SDS011;6381;45.748;12.106;2022-12-24T11:08:41;36.63;;;31.47;;
12631;SDS011;6381;45.748;12.106;2022-12-24T11:11:12;37.40;;;33.37;;
12631;SDS011;6381;45.748;12.106;2022-12-24T11:13:42;45.40;;;34.13;;
12631;SDS011;6381;45.748;12.106;2022-12-24T11:16:15;40.70;;;35.17;;
12631;SDS011;6381;45.748;12.106;2022-12-24T11:18:46;39.30;;;32.43;;
12631;SDS011;6381;45.748;12.106;2022-12-24T11:21:19;33.33;;;29.83;;
12631;SDS011;6381;45.748;12.106;2022-12-24T11:23:52;33.43;;;29.90;;
12631;SDS011;6381;45.748;12.106;2022-12-24T11:26:23;32.97;;;28.40;;
12631;SDS011;6381;45.748;12.106;2022-12-24T11:29:03;32.73;;;29.07;;
12631;SDS011;6381;45.748;12.106;2022-12-24T11:31:33;34.50;;;30.87;;
12631;SDS011;6381;45.748;12.106;2022-12-24T11:34:16;34.23;;;28.10;;
12631;SDS011;6381;45.748;12.106;2022-12-24T11:36:46;31.93;;;28.53;;
12631;SDS011;6381;45.748;12.106;2022-12-24T11:39:20;34.80;;;30.00;;
12631;SDS011;6381;45.748;12.106;2022-12-24T11:41:51;29.93;;;26.73;;
12631;SDS011;6381;45.748;12.106;2022-12-24T11:44:23;31.93;;;28.43;;
12631;SDS011;6381;45.748;12.106;2022-12-24T11:46:53;31.63;;;28.23;;
12631;SDS011;6381;45.748;12.106;2022-12-24T11:49:25;29.77;;;26.57;;
12631;SDS011;6381;45.748;12.106;2022-12-24T11:54:49;31.93;;;28.53;;
12631;SDS011;6381;45.748;12.106;2022-12-24T11:57:19;30.77;;;27.57;;
12631;SDS011;6381;45.748;12.106;2022-12-24T11:59:51;31.23;;;28.00;;
12631;SDS011;6381;45.748;12.106;2022-12-24T12:02:21;28.87;;;25.80;;
12631;SDS011;6381;45.748;12.106;2022-12-24T12:04:53;31.43;;;25.07;;
12631;SDS011;6381;45.748;12.106;2022-12-24T12:07:23;25.53;;;21.10;;
12631;SDS011;6381;45.748;12.106;2022-12-24T12:09:56;25.57;;;22.87;;
12631;SDS011;6381;45.748;12.106;2022-12-24T12:12:29;25.03;;;22.43;;
12631;SDS011;6381;45.748;12.106;2022-12-24T12:14:59;23.50;;;20.83;;
12631;SDS011;6381;45.748;12.106;2022-12-24T12:17:31;23.60;;;21.10;;
12631;SDS011;6381;45.748;12.106;2022-12-24T12:20:03;21.00;;;18.88;;
12631;SDS011;6381;45.748;12.106;2022-12-24T12:22:43;12.88;;;11.60;;
12631;SDS011;6381;45.748;12.106;2022-12-24T12:25:59;12.75;;;11.05;;
12631;SDS011;6381;45.748;12.106;2022-12-24T12:28:31;7.47;;;6.75;;
12631;SDS011;6381;45.748;12.106;2022-12-24T12:31:33;9.13;;;8.27;;
12631;SDS011;6381;45.748;12.106;2022-12-24T12:34:33;13.60;;;12.15;;
12631;SDS011;6381;45.748;12.106;2022-12-24T12:37:49;15.00;;;13.50;;
12631;SDS011;6381;45.748;12.106;2022-12-24T12:43:40;14.88;;;13.40;;
12631;SDS011;6381;45.748;12.106;2022-12-24T12:46:19;13.10;;;11.82;;
12631;SDS011;6381;45.748;12.106;2022-12-24T12:49:16;15.15;;;13.52;;
12631;SDS011;6381;45.748;12.106;2022-12-24T12:52:01;14.48;;;12.98;;
12631;SDS011;6381;45.748;12.106;2022-12-24T12:54:47;12.80;;;11.45;;
12631;SDS011;6381;45.748;12.106;2022-12-24T12:57:21;13.90;;;12.35;;
12631;SDS011;6381;45.748;12.106;2022-12-24T12:59:55;14.50;;;13.10;;
12631;SDS011;6381;45.748;12.106;2022-12-24T13:02:35;14.63;;;12.88;;
12631;SDS011;6381;45.748;12.106;2022-12-24T13:05:24;15.48;;;14.00;;
12631;SDS011;6381;45.748;12.106;2022-12-24T13:11:03;13.55;;;12.15;;
12631;SDS011;6381;45.748;12.106;2022-12-24T13:13:52;11.82;;;10.73;;
12631;SDS011;6381;45.748;12.106;2022-12-24T13:16:38;14.02;;;12.63;;
12631;SDS011;6381;45.748;12.106;2022-12-24T13:19:20;14.15;;;12.68;;
12631;SDS011;6381;45.748;12.106;2022-12-24T13:22:12;14.27;;;12.88;;
12631;SDS011;6381;45.748;12.106;2022-12-24T13:24:47;12.52;;;11.23;;
12631;SDS011;6381;45.748;12.106;2022-12-24T13:27:19;13.77;;;12.48;;
12631;SDS011;6381;45.748;12.106;2022-12-24T13:32:53;13.43;;;12.00;;
12631;SDS011;6381;45.748;12.106;2022-12-24T13:35:28;14.53;;;12.70;;
12631;SDS011;6381;45.748;12.106;2022-12-24T13:40:55;14.13;;;12.83;;
12631;SDS011;6381;45.748;12.106;2022-12-24T13:44:16;14.93;;;13.43;;
12631;SDS011;6381;45.748;12.106;2022-12-24T13:46:51;15.67;;;13.97;;
12631;SDS011;6381;45.748;12.106;2022-12-24T13:49:30;14.93;;;13.53;;
12631;SDS011;6381;45.748;12.106;2022-12-24T13:52:05;18.07;;;16.17;;
12631;SDS011;6381;45.748;12.106;2022-12-24T13:55:12;16.70;;;15.03;;
12631;SDS011;6381;45.748;12.106;2022-12-24T13:58:13;15.60;;;14.10;;
12631;SDS011;6381;45.748;12.106;2022-12-24T14:00:50;15.60;;;14.10;;
12631;SDS011;6381;45.748;12.106;2022-12-24T14:03:29;15.73;;;14.13;;
12631;SDS011;6381;45.748;12.106;2022-12-24T14:06:03;15.57;;;13.83;;
12631;SDS011;6381;45.748;12.106;2022-12-24T14:08:37;14.77;;;13.27;;
12631;SDS011;6381;45.748;12.106;2022-12-24T14:11:09;14.40;;;13.00;;
12631;SDS011;6381;45.748;12.106;2022-12-24T14:13:53;14.90;;;13.37;;
12631;SDS011;6381;45.748;12.106;2022-12-24T14:16:24;15.83;;;14.23;;
12631;SDS011;6381;45.748;12.106;2022-12-24T14:19:09;15.13;;;13.63;;
12631;SDS011;6381;45.748;12.106;2022-12-24T14:21:57;16.50;;;14.73;;
12631;SDS011;6381;45.748;12.106;2022-12-24T14:24:30;20.30;;;17.87;;
12631;SDS011;6381;45.748;12.106;2022-12-24T14:27:06;18.63;;;16.63;;
12631;SDS011;6381;45.748;12.106;2022-12-24T14:29:42;19.77;;;17.70;;
12631;SDS011;6381;45.748;12.106;2022-12-24T14:32:14;19.17;;;17.23;;
12631;SDS011;6381;45.748;12.106;2022-12-24T14:34:44;19.17;;;17.27;;
12631;SDS011;6381;45.748;12.106;2022-12-24T14:37:17;20.23;;;18.33;;
12631;SDS011;6381;45.748;12.106;2022-12-24T14:39:48;20.93;;;18.73;;
12631;SDS011;6381;45.748;12.106;2022-12-24T14:42:28;19.97;;;17.83;;
12631;SDS011;6381;45.748;12.106;2022-12-24T14:45:03;21.03;;;19.03;;
12631;SDS011;6381;45.748;12.106;2022-12-24T14:47:36;19.43;;;17.43;;
12631;SDS011;6381;45.748;12.106;2022-12-24T14:52:59;18.23;;;16.33;;
12631;SDS011;6381;45.748;12.106;2022-12-24T14:55:45;20.00;;;17.43;;
12631;SDS011;6381;45.748;12.106;2022-12-24T14:58:20;22.33;;;20.03;;
12631;SDS011;6381;45.748;12.106;2022-12-24T15:00:51;28.53;;;25.43;;
12631;SDS011;6381;45.748;12.106;2022-12-24T15:03:23;27.60;;;24.70;;
12631;SDS011;6381;45.748;12.106;2022-12-24T15:05:54;29.53;;;25.80;;
12631;SDS011;6381;45.748;12.106;2022-12-24T15:08:28;33.87;;;30.40;;
12631;SDS011;6381;45.748;12.106;2022-12-24T15:11:00;33.80;;;30.33;;
12631;SDS011;6381;45.748;12.106;2022-12-24T15:13:33;38.33;;;33.13;;
12631;SDS011;6381;45.748;12.106;2022-12-24T15:16:05;49.77;;;37.80;;
12631;SDS011;6381;45.748;12.106;2022-12-24T15:18:37;43.07;;;38.20;;